Sunset Colony, South Dakota
Current Conditions -  °F | °C
As of 1:35 PM on Thursday 23 Oct 2014 (Local Time) from KGWR Reporting Station
Clear Clear  
Wind Chill: 19°   Ceiling: Unl
Heat Index: 19°   Visibility: 10mi
Dew Point:   Wind: 12mph
Humidity: 46%   Direction: 200°SSW
Pressure: 29.91"   Gusts: NA
Location:  45.8144°N, 97.7089°W
Report Text: KGWR 231835Z AUTO 20010KT 10SM CLR 19/07 A2991 RMK A01 P000
Loading
Personal Weather Stations






























Interactive Weather Map
Tropical Storm Tracking
New forecast layout! Learn more

10-Day Weather Forecast

Advertisements
Track Severe Weather on mobile